Main page
METAR-TAF:

METAR-TAF

Airports :

Bandırma Airport

Bandirma, Turkey

latitude: 40-19N, longitude: 027-58E, elevation: 51 m

METAR: missing

Time: 18:59 (15:59 UTC)

Forecast

The report was made 2 hours and 19 minutes ago, at 13:40 UTC
Forecast valid from 26 at 15 UTC to 26 at 24 UTC
Wind 20 kt from the South with gusts up to 30 kt
Visibility 10 km or more
no clouds below 1500 m and no cumulonimbus

TAF: LTBG 261340Z 2615/2624 18020G30KT CAVOK

Weather observations and forecasts of more than 4000 airports (METAR and TAF reports).

The available stations are represented by yellow and red dots on the map.

Hover mouse over dot to see the name of the station.

Then click to see weather observations and forecasts.

To change the map : click on the green buttons with a black cross to zoom in, on the green button with a dash to zoom out, or on the green arrows for adjacent maps.


METAR-TAF: